sensor_id;sensor_type;location;lat;lon;timestamp;P1;durP1;ratioP1;P2;durP2;ratioP2
76854;SDS011;66343;44.588;33.450;2023-04-06T00:02:15;3.15;;;0.60;;
76854;SDS011;66343;44.588;33.450;2023-04-06T00:04:47;2.97;;;0.55;;
76854;SDS011;66343;44.588;33.450;2023-04-06T00:07:17;6.07;;;0.90;;
76854;SDS011;66343;44.588;33.450;2023-04-06T00:09:48;5.28;;;0.88;;
76854;SDS011;66343;44.588;33.450;2023-04-06T00:12:18;3.20;;;0.95;;
76854;SDS011;66343;44.588;33.450;2023-04-06T00:14:47;8.23;;;1.48;;
76854;SDS011;66343;44.588;33.450;2023-04-06T00:17:16;5.43;;;1.30;;
76854;SDS011;66343;44.588;33.450;2023-04-06T00:19:47;5.05;;;1.30;;
76854;SDS011;66343;44.588;33.450;2023-04-06T00:22:19;6.85;;;2.15;;
76854;SDS011;66343;44.588;33.450;2023-04-06T00:24:51;8.77;;;2.42;;
76854;SDS011;66343;44.588;33.450;2023-04-06T00:27:20;7.68;;;2.03;;
76854;SDS011;66343;44.588;33.450;2023-04-06T00:29:53;9.57;;;2.03;;
76854;SDS011;66343;44.588;33.450;2023-04-06T00:32:28;10.45;;;2.85;;
76854;SDS011;66343;44.588;33.450;2023-04-06T00:34:58;8.93;;;1.90;;
76854;SDS011;66343;44.588;33.450;2023-04-06T00:37:27;8.82;;;2.20;;
76854;SDS011;66343;44.588;33.450;2023-04-06T00:39:56;8.63;;;2.10;;
76854;SDS011;66343;44.588;33.450;2023-04-06T00:42:26;9.63;;;2.15;;
76854;SDS011;66343;44.588;33.450;2023-04-06T00:44:59;8.20;;;1.73;;
76854;SDS011;66343;44.588;33.450;2023-04-06T00:47:30;10.27;;;1.80;;
76854;SDS011;66343;44.588;33.450;2023-04-06T00:50:02;10.68;;;1.90;;
76854;SDS011;66343;44.588;33.450;2023-04-06T00:52:34;7.18;;;2.00;;
76854;SDS011;66343;44.588;33.450;2023-04-06T00:55:10;8.43;;;2.00;;
76854;SDS011;66343;44.588;33.450;2023-04-06T00:57:48;7.68;;;2.10;;
76854;SDS011;66343;44.588;33.450;2023-04-06T01:00:19;9.70;;;2.40;;
76854;SDS011;66343;44.588;33.450;2023-04-06T01:02:54;6.82;;;2.00;;
76854;SDS011;66343;44.588;33.450;2023-04-06T01:05:40;7.47;;;1.95;;
76854;SDS011;66343;44.588;33.450;2023-04-06T01:08:24;6.05;;;2.08;;
76854;SDS011;66343;44.588;33.450;2023-04-06T01:11:10;7.32;;;2.33;;
76854;SDS011;66343;44.588;33.450;2023-04-06T01:13:43;8.13;;;2.50;;
76854;SDS011;66343;44.588;33.450;2023-04-06T01:16:25;8.30;;;2.25;;
76854;SDS011;66343;44.588;33.450;2023-04-06T01:19:09;9.45;;;2.50;;
76854;SDS011;66343;44.588;33.450;2023-04-06T01:21:55;7.78;;;2.28;;
76854;SDS011;66343;44.588;33.450;2023-04-06T01:24:46;8.13;;;2.42;;
76854;SDS011;66343;44.588;33.450;2023-04-06T01:27:21;6.50;;;2.45;;
76854;SDS011;66343;44.588;33.450;2023-04-06T01:30:10;6.88;;;2.20;;
76854;SDS011;66343;44.588;33.450;2023-04-06T01:33:01;7.13;;;2.30;;
76854;SDS011;66343;44.588;33.450;2023-04-06T01:35:43;8.27;;;2.30;;
76854;SDS011;66343;44.588;33.450;2023-04-06T01:38:16;7.78;;;2.17;;
76854;SDS011;66343;44.588;33.450;2023-04-06T01:40:49;8.55;;;2.30;;
76854;SDS011;66343;44.588;33.450;2023-04-06T01:43:22;14.95;;;3.13;;
76854;SDS011;66343;44.588;33.450;2023-04-06T01:46:11;6.50;;;2.33;;
76854;SDS011;66343;44.588;33.450;2023-04-06T01:48:45;7.95;;;2.20;;
76854;SDS011;66343;44.588;33.450;2023-04-06T01:51:32;8.55;;;1.77;;
76854;SDS011;66343;44.588;33.450;2023-04-06T01:54:09;9.60;;;2.45;;
76854;SDS011;66343;44.588;33.450;2023-04-06T01:56:59;9.45;;;2.30;;
76854;SDS011;66343;44.588;33.450;2023-04-06T01:59:59;7.32;;;2.10;;
76854;SDS011;66343;44.588;33.450;2023-04-06T02:02:48;10.05;;;2.40;;
76854;SDS011;66343;44.588;33.450;2023-04-06T02:05:24;6.05;;;1.90;;
76854;SDS011;66343;44.588;33.450;2023-04-06T02:07:56;9.20;;;2.35;;
76854;SDS011;66343;44.588;33.450;2023-04-06T02:10:37;7.72;;;2.63;;
76854;SDS011;66343;44.588;33.450;2023-04-06T02:13:16;10.38;;;2.35;;
76854;SDS011;66343;44.588;33.450;2023-04-06T02:15:50;9.90;;;3.03;;
76854;SDS011;66343;44.588;33.450;2023-04-06T02:18:30;6.97;;;2.13;;
76854;SDS011;66343;44.588;33.450;2023-04-06T02:21:03;7.93;;;2.47;;
76854;SDS011;66343;44.588;33.450;2023-04-06T02:23:37;7.90;;;2.10;;
76854;SDS011;66343;44.588;33.450;2023-04-06T02:26:08;7.95;;;2.28;;
76854;SDS011;66343;44.588;33.450;2023-04-06T02:28:38;5.55;;;1.90;;
76854;SDS011;66343;44.588;33.450;2023-04-06T02:31:10;7.25;;;2.05;;
76854;SDS011;66343;44.588;33.450;2023-04-06T02:33:47;8.77;;;2.70;;
76854;SDS011;66343;44.588;33.450;2023-04-06T02:36:25;10.77;;;2.58;;
76854;SDS011;66343;44.588;33.450;2023-04-06T02:38:55;7.88;;;2.30;;
76854;SDS011;66343;44.588;33.450;2023-04-06T02:41:25;8.75;;;2.60;;
76854;SDS011;66343;44.588;33.450;2023-04-06T02:44:03;8.57;;;2.72;;
76854;SDS011;66343;44.588;33.450;2023-04-06T02:46:41;5.78;;;2.10;;
76854;SDS011;66343;44.588;33.450;2023-04-06T02:49:12;6.78;;;2.17;;
76854;SDS011;66343;44.588;33.450;2023-04-06T02:51:42;14.20;;;3.00;;
76854;SDS011;66343;44.588;33.450;2023-04-06T02:54:26;7.57;;;2.50;;
76854;SDS011;66343;44.588;33.450;2023-04-06T02:56:55;6.68;;;2.10;;
76854;SDS011;66343;44.588;33.450;2023-04-06T02:59:33;7.93;;;2.30;;
76854;SDS011;66343;44.588;33.450;2023-04-06T03:02:13;7.97;;;2.38;;
76854;SDS011;66343;44.588;33.450;2023-04-06T03:04:44;7.63;;;2.30;;
76854;SDS011;66343;44.588;33.450;2023-04-06T03:07:23;9.00;;;2.40;;
76854;SDS011;66343;44.588;33.450;2023-04-06T03:09:53;7.43;;;2.10;;
76854;SDS011;66343;44.588;33.450;2023-04-06T03:12:24;5.63;;;2.03;;
76854;SDS011;66343;44.588;33.450;2023-04-06T03:15:14;6.82;;;2.03;;
76854;SDS011;66343;44.588;33.450;2023-04-06T03:17:52;7.75;;;2.42;;
76854;SDS011;66343;44.588;33.450;2023-04-06T03:20:44;8.18;;;2.50;;
76854;SDS011;66343;44.588;33.450;2023-04-06T03:23:18;10.15;;;2.85;;
76854;SDS011;66343;44.588;33.450;2023-04-06T03:25:56;8.82;;;2.13;;
76854;SDS011;66343;44.588;33.450;2023-04-06T03:28:26;12.27;;;3.15;;
76854;SDS011;66343;44.588;33.450;2023-04-06T03:31:11;6.13;;;2.28;;
76854;SDS011;66343;44.588;33.450;2023-04-06T03:33:52;8.05;;;2.30;;
76854;SDS011;66343;44.588;33.450;2023-04-06T03:36:34;9.65;;;3.00;;
76854;SDS011;66343;44.588;33.450;2023-04-06T03:39:08;7.30;;;2.13;;
76854;SDS011;66343;44.588;33.450;2023-04-06T03:41:44;7.47;;;2.70;;
76854;SDS011;66343;44.588;33.450;2023-04-06T03:44:34;8.25;;;2.50;;
76854;SDS011;66343;44.588;33.450;2023-04-06T03:47:09;8.57;;;2.60;;
76854;SDS011;66343;44.588;33.450;2023-04-06T03:49:41;13.40;;;2.60;;
76854;SDS011;66343;44.588;33.450;2023-04-06T03:52:31;7.63;;;2.20;;
76854;SDS011;66343;44.588;33.450;2023-04-06T03:55:06;7.18;;;2.15;;
76854;SDS011;66343;44.588;33.450;2023-04-06T03:57:42;9.18;;;2.17;;
76854;SDS011;66343;44.588;33.450;2023-04-06T04:00:12;5.90;;;2.20;;
76854;SDS011;66343;44.588;33.450;2023-04-06T04:02:42;10.60;;;2.15;;
76854;SDS011;66343;44.588;33.450;2023-04-06T04:05:13;8.00;;;2.30;;
76854;SDS011;66343;44.588;33.450;2023-04-06T04:07:43;9.82;;;2.58;;
76854;SDS011;66343;44.588;33.450;2023-04-06T04:10:18;8.68;;;2.28;;
76854;SDS011;66343;44.588;33.450;2023-04-06T04:12:48;9.60;;;2.60;;
76854;SDS011;66343;44.588;33.450;2023-04-06T04:15:17;7.70;;;2.38;;
76854;SDS011;66343;44.588;33.450;2023-04-06T04:17:53;9.27;;;2.22;;
76854;SDS011;66343;44.588;33.450;2023-04-06T04:20:22;9.65;;;2.63;;
76854;SDS011;66343;44.588;33.450;2023-04-06T04:22:58;9.13;;;2.08;;
76854;SDS011;66343;44.588;33.450;2023-04-06T04:25:35;5.78;;;1.90;;
76854;SDS011;66343;44.588;33.450;2023-04-06T04:28:05;8.48;;;1.80;;
76854;SDS011;66343;44.588;33.450;2023-04-06T04:30:38;7.25;;;2.00;;
76854;SDS011;66343;44.588;33.450;2023-04-06T04:33:14;6.85;;;2.10;;
76854;SDS011;66343;44.588;33.450;2023-04-06T04:35:49;8.30;;;2.25;;
76854;SDS011;66343;44.588;33.450;2023-04-06T04:38:23;9.05;;;2.40;;
76854;SDS011;66343;44.588;33.450;2023-04-06T04:40:58;5.53;;;1.98;;
76854;SDS011;66343;44.588;33.450;2023-04-06T04:43:31;7.63;;;2.28;;
76854;SDS011;66343;44.588;33.450;2023-04-06T04:46:06;6.97;;;2.08;;
76854;SDS011;66343;44.588;33.450;2023-04-06T04:48:40;6.28;;;1.77;;
76854;SDS011;66343;44.588;33.450;2023-04-06T04:51:13;7.85;;;2.30;;
76854;SDS011;66343;44.588;33.450;2023-04-06T04:54:05;7.80;;;2.35;;
76854;SDS011;66343;44.588;33.450;2023-04-06T04:56:38;6.35;;;2.08;;
76854;SDS011;66343;44.588;33.450;2023-04-06T04:59:27;6.15;;;2.08;;
76854;SDS011;66343;44.588;33.450;2023-04-06T05:02:09;6.88;;;1.80;;
76854;SDS011;66343;44.588;33.450;2023-04-06T05:04:51;8.63;;;2.25;;
76854;SDS011;66343;44.588;33.450;2023-04-06T05:07:30;8.05;;;2.42;;
76854;SDS011;66343;44.588;33.450;2023-04-06T05:10:06;9.50;;;2.35;;
76854;SDS011;66343;44.588;33.450;2023-04-06T05:12:55;9.35;;;2.80;;
76854;SDS011;66343;44.588;33.450;2023-04-06T05:15:31;8.65;;;2.50;;
76854;SDS011;66343;44.588;33.450;2023-04-06T05:18:19;8.50;;;2.30;;
76854;SDS011;66343;44.588;33.450;2023-04-06T05:20:52;6.40;;;2.03;;
76854;SDS011;66343;44.588;33.450;2023-04-06T05:23:28;7.47;;;2.40;;
76854;SDS011;66343;44.588;33.450;2023-04-06T05:26:04;6.93;;;2.20;;
76854;SDS011;66343;44.588;33.450;2023-04-06T05:28:35;9.48;;;2.17;;
76854;SDS011;66343;44.588;33.450;2023-04-06T05:31:05;9.75;;;2.35;;
76854;SDS011;66343;44.588;33.450;2023-04-06T05:33:46;17.73;;;2.80;;
76854;SDS011;66343;44.588;33.450;2023-04-06T05:36:33;13.98;;;2.42;;
76854;SDS011;66343;44.588;33.450;2023-04-06T05:39:22;9.40;;;2.22;;
76854;SDS011;66343;44.588;33.450;2023-04-06T05:41:55;11.40;;;2.65;;
76854;SDS011;66343;44.588;33.450;2023-04-06T05:44:46;8.68;;;2.30;;
76854;SDS011;66343;44.588;33.450;2023-04-06T05:47:17;6.15;;;1.90;;
76854;SDS011;66343;44.588;33.450;2023-04-06T05:49:53;8.10;;;2.22;;
76854;SDS011;66343;44.588;33.450;2023-04-06T05:52:36;7.70;;;2.10;;
76854;SDS011;66343;44.588;33.450;2023-04-06T05:55:06;7.90;;;2.08;;
76854;SDS011;66343;44.588;33.450;2023-04-06T05:57:46;6.80;;;2.13;;
76854;SDS011;66343;44.588;33.450;2023-04-06T06:00:18;10.15;;;2.95;;
76854;SDS011;66343;44.588;33.450;2023-04-06T06:02:59;6.93;;;2.13;;
76854;SDS011;66343;44.588;33.450;2023-04-06T06:05:36;7.30;;;2.38;;
76854;SDS011;66343;44.588;33.450;2023-04-06T06:08:23;12.65;;;2.67;;
76854;SDS011;66343;44.588;33.450;2023-04-06T06:10:53;11.55;;;2.40;;
76854;SDS011;66343;44.588;33.450;2023-04-06T06:13:25;8.32;;;2.28;;
76854;SDS011;66343;44.588;33.450;2023-04-06T06:15:57;9.73;;;2.88;;
76854;SDS011;66343;44.588;33.450;2023-04-06T06:18:27;9.27;;;2.40;;
76854;SDS011;66343;44.588;33.450;2023-04-06T06:20:57;10.50;;;2.00;;
76854;SDS011;66343;44.588;33.450;2023-04-06T06:23:29;6.72;;;2.08;;
76854;SDS011;66343;44.588;33.450;2023-04-06T06:26:04;8.70;;;2.20;;
76854;SDS011;66343;44.588;33.450;2023-04-06T06:28:39;9.00;;;2.13;;
76854;SDS011;66343;44.588;33.450;2023-04-06T06:31:15;9.23;;;2.78;;
76854;SDS011;66343;44.588;33.450;2023-04-06T06:33:57;8.35;;;2.40;;
76854;SDS011;66343;44.588;33.450;2023-04-06T06:36:30;6.55;;;1.98;;
76854;SDS011;66343;44.588;33.450;2023-04-06T06:39:04;6.75;;;1.98;;
76854;SDS011;66343;44.588;33.450;2023-04-06T06:41:38;7.68;;;2.40;;
76854;SDS011;66343;44.588;33.450;2023-04-06T06:44:11;8.05;;;2.50;;
76854;SDS011;66343;44.588;33.450;2023-04-06T06:46:41;9.70;;;2.20;;
76854;SDS011;66343;44.588;33.450;2023-04-06T06:49:19;11.38;;;2.28;;
76854;SDS011;66343;44.588;33.450;2023-04-06T06:51:52;9.68;;;2.78;;
76854;SDS011;66343;44.588;33.450;2023-04-06T06:54:25;10.02;;;2.72;;
76854;SDS011;66343;44.588;33.450;2023-04-06T06:57:00;8.25;;;2.42;;
76854;SDS011;66343;44.588;33.450;2023-04-06T06:59:36;8.93;;;2.55;;
76854;SDS011;66343;44.588;33.450;2023-04-06T07:02:09;8.55;;;3.05;;
76854;SDS011;66343;44.588;33.450;2023-04-06T07:04:42;9.15;;;2.97;;
76854;SDS011;66343;44.588;33.450;2023-04-06T07:07:12;10.15;;;2.83;;
76854;SDS011;66343;44.588;33.450;2023-04-06T07:09:42;9.52;;;2.45;;
76854;SDS011;66343;44.588;33.450;2023-04-06T07:12:17;8.27;;;2.85;;
76854;SDS011;66343;44.588;33.450;2023-04-06T07:14:49;8.05;;;2.70;;
76854;SDS011;66343;44.588;33.450;2023-04-06T07:17:18;9.32;;;3.15;;
76854;SDS011;66343;44.588;33.450;2023-04-06T07:19:51;9.38;;;2.65;;
76854;SDS011;66343;44.588;33.450;2023-04-06T07:22:21;7.45;;;2.75;;
76854;SDS011;66343;44.588;33.450;2023-04-06T07:24:55;9.27;;;2.70;;
76854;SDS011;66343;44.588;33.450;2023-04-06T07:27:31;6.57;;;2.40;;
76854;SDS011;66343;44.588;33.450;2023-04-06T07:30:04;8.35;;;2.85;;
76854;SDS011;66343;44.588;33.450;2023-04-06T07:32:38;9.90;;;2.95;;
76854;SDS011;66343;44.588;33.450;2023-04-06T07:35:11;6.70;;;2.20;;
76854;SDS011;66343;44.588;33.450;2023-04-06T07:37:45;7.53;;;2.15;;
76854;SDS011;66343;44.588;33.450;2023-04-06T07:40:18;7.15;;;2.60;;
76854;SDS011;66343;44.588;33.450;2023-04-06T07:42:53;6.35;;;2.53;;
76854;SDS011;66343;44.588;33.450;2023-04-06T07:45:29;7.68;;;2.55;;
76854;SDS011;66343;44.588;33.450;2023-04-06T07:48:05;9.48;;;2.67;;
76854;SDS011;66343;44.588;33.450;2023-04-06T07:50:36;7.10;;;2.65;;
76854;SDS011;66343;44.588;33.450;2023-04-06T07:53:09;6.13;;;2.08;;
76854;SDS011;66343;44.588;33.450;2023-04-06T07:55:39;9.10;;;2.92;;
76854;SDS011;66343;44.588;33.450;2023-04-06T07:58:11;11.43;;;2.70;;
76854;SDS011;66343;44.588;33.450;2023-04-06T08:00:46;7.45;;;2.20;;
76854;SDS011;66343;44.588;33.450;2023-04-06T08:03:17;8.38;;;2.55;;
76854;SDS011;66343;44.588;33.450;2023-04-06T08:05:49;8.93;;;2.85;;
76854;SDS011;66343;44.588;33.450;2023-04-06T08:08:22;8.35;;;2.65;;
76854;SDS011;66343;44.588;33.450;2023-04-06T08:10:52;8.77;;;3.00;;
76854;SDS011;66343;44.588;33.450;2023-04-06T08:13:24;8.55;;;2.97;;
76854;SDS011;66343;44.588;33.450;2023-04-06T08:15:56;6.18;;;2.45;;
76854;SDS011;66343;44.588;33.450;2023-04-06T08:18:27;7.68;;;2.60;;
76854;SDS011;66343;44.588;33.450;2023-04-06T08:21:01;9.07;;;2.80;;
76854;SDS011;66343;44.588;33.450;2023-04-06T08:23:30;7.65;;;2.35;;
76854;SDS011;66343;44.588;33.450;2023-04-06T08:26:00;8.52;;;2.30;;
76854;SDS011;66343;44.588;33.450;2023-04-06T08:28:31;6.78;;;2.58;;
76854;SDS011;66343;44.588;33.450;2023-04-06T08:31:04;7.50;;;2.75;;
76854;SDS011;66343;44.588;33.450;2023-04-06T08:33:34;9.98;;;2.85;;
76854;SDS011;66343;44.588;33.450;2023-04-06T08:36:12;6.45;;;2.50;;
76854;SDS011;66343;44.588;33.450;2023-04-06T08:38:46;8.75;;;2.25;;
76854;SDS011;66343;44.588;33.450;2023-04-06T08:41:18;6.28;;;2.40;;
76854;SDS011;66343;44.588;33.450;2023-04-06T08:43:48;7.03;;;2.97;;
76854;SDS011;66343;44.588;33.450;2023-04-06T08:46:29;8.68;;;3.40;;
76854;SDS011;66343;44.588;33.450;2023-04-06T08:49:03;8.13;;;2.83;;
76854;SDS011;66343;44.588;33.450;2023-04-06T08:51:39;6.32;;;2.88;;
76854;SDS011;66343;44.588;33.450;2023-04-06T08:54:14;8.85;;;3.13;;
76854;SDS011;66343;44.588;33.450;2023-04-06T08:56:44;7.85;;;3.28;;
76854;SDS011;66343;44.588;33.450;2023-04-06T08:59:16;7.32;;;2.80;;
76854;SDS011;66343;44.588;33.450;2023-04-06T09:02:13;7.50;;;2.75;;
76854;SDS011;66343;44.588;33.450;2023-04-06T09:04:47;11.13;;;3.28;;
76854;SDS011;66343;44.588;33.450;2023-04-06T09:07:22;6.75;;;2.78;;
76854;SDS011;66343;44.588;33.450;2023-04-06T09:09:54;7.88;;;2.92;;
76854;SDS011;66343;44.588;33.450;2023-04-06T09:12:31;8.32;;;3.20;;
76854;SDS011;66343;44.588;33.450;2023-04-06T09:15:17;7.55;;;2.95;;
76854;SDS011;66343;44.588;33.450;2023-04-06T09:17:52;7.53;;;2.97;;
76854;SDS011;66343;44.588;33.450;2023-04-06T09:20:30;8.38;;;2.83;;
76854;SDS011;66343;44.588;33.450;2023-04-06T09:23:00;7.40;;;2.92;;
76854;SDS011;66343;44.588;33.450;2023-04-06T09:25:34;8.23;;;2.80;;
76854;SDS011;66343;44.588;33.450;2023-04-06T09:28:10;7.35;;;2.38;;
76854;SDS011;66343;44.588;33.450;2023-04-06T09:30:51;8.25;;;2.92;;
76854;SDS011;66343;44.588;33.450;2023-04-06T09:33:33;7.93;;;3.03;;
76854;SDS011;66343;44.588;33.450;2023-04-06T09:36:07;9.25;;;3.35;;
76854;SDS011;66343;44.588;33.450;2023-04-06T09:38:53;10.55;;;3.78;;
76854;SDS011;66343;44.588;33.450;2023-04-06T09:41:30;10.90;;;3.88;;
76854;SDS011;66343;44.588;33.450;2023-04-06T09:44:05;8.43;;;3.25;;
76854;SDS011;66343;44.588;33.450;2023-04-06T09:49:16;8.88;;;3.53;;
76854;SDS011;66343;44.588;33.450;2023-04-06T09:51:56;8.85;;;3.63;;
76854;SDS011;66343;44.588;33.450;2023-04-06T09:54:31;10.85;;;3.67;;
76854;SDS011;66343;44.588;33.450;2023-04-06T09:57:13;10.65;;;3.90;;
76854;SDS011;66343;44.588;33.450;2023-04-06T10:00:07;10.65;;;4.22;;
76854;SDS011;66343;44.588;33.450;2023-04-06T10:07:57;7.20;;;2.83;;
76854;SDS011;66343;44.588;33.450;2023-04-06T10:10:33;7.70;;;3.33;;
76854;SDS011;66343;44.588;33.450;2023-04-06T10:13:06;10.32;;;3.70;;
76854;SDS011;66343;44.588;33.450;2023-04-06T10:15:40;9.25;;;3.53;;
76854;SDS011;66343;44.588;33.450;2023-04-06T10:18:15;11.50;;;3.95;;
76854;SDS011;66343;44.588;33.450;2023-04-06T10:20:49;12.80;;;3.97;;
76854;SDS011;66343;44.588;33.450;2023-04-06T10:24:01;9.90;;;4.03;;
76854;SDS011;66343;44.588;33.450;2023-04-06T10:26:30;10.50;;;3.70;;
76854;SDS011;66343;44.588;33.450;2023-04-06T10:29:03;8.57;;;3.45;;
76854;SDS011;66343;44.588;33.450;2023-04-06T10:31:39;7.88;;;3.22;;
76854;SDS011;66343;44.588;33.450;2023-04-06T10:34:11;8.77;;;3.70;;
76854;SDS011;66343;44.588;33.450;2023-04-06T10:36:44;8.60;;;4.05;;
76854;SDS011;66343;44.588;33.450;2023-04-06T10:39:23;8.52;;;3.22;;
76854;SDS011;66343;44.588;33.450;2023-04-06T10:41:56;9.80;;;3.88;;
76854;SDS011;66343;44.588;33.450;2023-04-06T10:44:41;8.05;;;3.53;;
76854;SDS011;66343;44.588;33.450;2023-04-06T10:47:24;11.18;;;3.85;;
76854;SDS011;66343;44.588;33.450;2023-04-06T10:49:54;9.80;;;3.78;;
76854;SDS011;66343;44.588;33.450;2023-04-06T10:52:24;7.60;;;3.63;;
76854;SDS011;66343;44.588;33.450;2023-04-06T10:54:54;9.48;;;3.53;;
76854;SDS011;66343;44.588;33.450;2023-04-06T10:57:28;9.02;;;3.20;;
76854;SDS011;66343;44.588;33.450;2023-04-06T11:00:04;8.13;;;3.47;;
76854;SDS011;66343;44.588;33.450;2023-04-06T11:02:40;8.88;;;3.60;;
76854;SDS011;66343;44.588;33.450;2023-04-06T11:05:11;9.52;;;4.25;;
76854;SDS011;66343;44.588;33.450;2023-04-06T11:07:44;9.00;;;3.58;;
76854;SDS011;66343;44.588;33.450;2023-04-06T11:10:20;11.18;;;4.05;;
76854;SDS011;66343;44.588;33.450;2023-04-06T11:12:54;10.50;;;3.92;;
76854;SDS011;66343;44.588;33.450;2023-04-06T11:15:26;12.52;;;4.03;;
76854;SDS011;66343;44.588;33.450;2023-04-06T11:17:56;11.48;;;3.38;;
76854;SDS011;66343;44.588;33.450;2023-04-06T11:20:27;9.38;;;3.05;;
76854;SDS011;66343;44.588;33.450;2023-04-06T11:22:59;8.40;;;3.00;;
76854;SDS011;66343;44.588;33.450;2023-04-06T11:25:33;7.65;;;3.40;;
76854;SDS011;66343;44.588;33.450;2023-04-06T11:28:11;7.63;;;3.47;;
76854;SDS011;66343;44.588;33.450;2023-04-06T11:30:45;8.57;;;4.03;;
76854;SDS011;66343;44.588;33.450;2023-04-06T11:33:21;7.47;;;2.85;;
76854;SDS011;66343;44.588;33.450;2023-04-06T11:35:57;9.45;;;3.10;;
76854;SDS011;66343;44.588;33.450;2023-04-06T11:38:26;7.47;;;3.10;;
76854;SDS011;66343;44.588;33.450;2023-04-06T11:41:02;6.95;;;2.90;;
76854;SDS011;66343;44.588;33.450;2023-04-06T11:43:35;8.40;;;3.20;;
76854;SDS011;66343;44.588;33.450;2023-04-06T11:46:04;8.40;;;2.90;;
76854;SDS011;66343;44.588;33.450;2023-04-06T11:48:43;7.35;;;2.72;;
76854;SDS011;66343;44.588;33.450;2023-04-06T11:51:21;10.57;;;3.30;;
76854;SDS011;66343;44.588;33.450;2023-04-06T11:53:56;7.32;;;2.75;;
76854;SDS011;66343;44.588;33.450;2023-04-06T11:56:27;8.80;;;3.25;;
76854;SDS011;66343;44.588;33.450;2023-04-06T11:59:01;7.63;;;3.40;;
76854;SDS011;66343;44.588;33.450;2023-04-06T12:01:44;6.18;;;2.75;;
76854;SDS011;66343;44.588;33.450;2023-04-06T12:04:18;8.45;;;2.72;;
76854;SDS011;66343;44.588;33.450;2023-04-06T12:06:48;6.95;;;3.15;;
76854;SDS011;66343;44.588;33.450;2023-04-06T12:09:24;9.55;;;3.28;;
76854;SDS011;66343;44.588;33.450;2023-04-06T12:11:59;7.82;;;3.03;;
76854;SDS011;66343;44.588;33.450;2023-04-06T12:14:31;8.02;;;3.05;;
76854;SDS011;66343;44.588;33.450;2023-04-06T12:17:04;10.65;;;3.05;;
76854;SDS011;66343;44.588;33.450;2023-04-06T12:19:38;8.23;;;2.70;;
76854;SDS011;66343;44.588;33.450;2023-04-06T12:22:10;6.28;;;2.78;;
76854;SDS011;66343;44.588;33.450;2023-04-06T12:24:41;8.82;;;3.03;;
76854;SDS011;66343;44.588;33.450;2023-04-06T12:27:15;9.40;;;3.22;;
76854;SDS011;66343;44.588;33.450;2023-04-06T12:29:51;7.68;;;2.72;;
76854;SDS011;66343;44.588;33.450;2023-04-06T12:32:23;7.10;;;2.95;;
76854;SDS011;66343;44.588;33.450;2023-04-06T12:34:53;7.35;;;2.90;;
76854;SDS011;66343;44.588;33.450;2023-04-06T12:37:29;6.57;;;2.80;;
76854;SDS011;66343;44.588;33.450;2023-04-06T12:40:02;7.22;;;2.80;;
76854;SDS011;66343;44.588;33.450;2023-04-06T12:42:41;7.22;;;2.63;;
76854;SDS011;66343;44.588;33.450;2023-04-06T12:45:11;7.35;;;3.00;;
76854;SDS011;66343;44.588;33.450;2023-04-06T12:47:47;8.75;;;3.50;;
76854;SDS011;66343;44.588;33.450;2023-04-06T12:50:24;7.47;;;3.30;;
76854;SDS011;66343;44.588;33.450;2023-04-06T12:52:59;10.20;;;3.65;;
76854;SDS011;66343;44.588;33.450;2023-04-06T12:55:30;7.82;;;3.45;;
76854;SDS011;66343;44.588;33.450;2023-04-06T12:58:05;9.10;;;3.63;;
76854;SDS011;66343;44.588;33.450;2023-04-06T13:00:38;8.27;;;3.45;;
76854;SDS011;66343;44.588;33.450;2023-04-06T13:03:14;7.20;;;2.90;;
76854;SDS011;66343;44.588;33.450;2023-04-06T13:05:49;9.40;;;3.15;;
76854;SDS011;66343;44.588;33.450;2023-04-06T13:08:22;11.23;;;3.45;;
76854;SDS011;66343;44.588;33.450;2023-04-06T13:11:01;10.60;;;3.90;;
76854;SDS011;66343;44.588;33.450;2023-04-06T13:13:34;9.05;;;3.60;;
76854;SDS011;66343;44.588;33.450;2023-04-06T13:16:08;8.55;;;3.90;;
76854;SDS011;66343;44.588;33.450;2023-04-06T13:18:40;10.57;;;3.97;;
76854;SDS011;66343;44.588;33.450;2023-04-06T13:21:16;10.45;;;3.45;;
76854;SDS011;66343;44.588;33.450;2023-04-06T13:23:48;12.38;;;5.20;;
76854;SDS011;66343;44.588;33.450;2023-04-06T13:26:21;8.73;;;3.92;;
76854;SDS011;66343;44.588;33.450;2023-04-06T13:28:53;8.95;;;3.55;;
76854;SDS011;66343;44.588;33.450;2023-04-06T13:31:25;8.73;;;3.65;;
76854;SDS011;66343;44.588;33.450;2023-04-06T13:33:58;10.52;;;3.85;;
76854;SDS011;66343;44.588;33.450;2023-04-06T13:36:36;9.27;;;3.72;;
76854;SDS011;66343;44.588;33.450;2023-04-06T13:39:07;7.88;;;3.72;;
76854;SDS011;66343;44.588;33.450;2023-04-06T13:41:43;8.35;;;3.63;;
76854;SDS011;66343;44.588;33.450;2023-04-06T13:44:13;10.63;;;4.07;;
76854;SDS011;66343;44.588;33.450;2023-04-06T13:46:45;7.78;;;3.63;;
76854;SDS011;66343;44.588;33.450;2023-04-06T13:49:18;9.32;;;3.47;;
76854;SDS011;66343;44.588;33.450;2023-04-06T13:51:50;8.57;;;3.60;;
76854;SDS011;66343;44.588;33.450;2023-04-06T13:54:26;9.73;;;3.63;;
76854;SDS011;66343;44.588;33.450;2023-04-06T13:56:57;10.68;;;4.25;;
76854;SDS011;66343;44.588;33.450;2023-04-06T13:59:34;9.02;;;3.33;;
76854;SDS011;66343;44.588;33.450;2023-04-06T14:02:09;7.97;;;3.58;;
76854;SDS011;66343;44.588;33.450;2023-04-06T14:04:48;7.75;;;3.38;;
76854;SDS011;66343;44.588;33.450;2023-04-06T14:07:22;9.20;;;4.03;;
76854;SDS011;66343;44.588;33.450;2023-04-06T14:09:58;7.03;;;3.05;;
76854;SDS011;66343;44.588;33.450;2023-04-06T14:12:31;8.68;;;3.10;;
76854;SDS011;66343;44.588;33.450;2023-04-06T14:15:05;8.10;;;3.55;;
76854;SDS011;66343;44.588;33.450;2023-04-06T14:17:39;8.07;;;3.80;;
76854;SDS011;66343;44.588;33.450;2023-04-06T14:20:09;9.93;;;3.42;;
76854;SDS011;66343;44.588;33.450;2023-04-06T14:22:47;7.70;;;3.85;;
76854;SDS011;66343;44.588;33.450;2023-04-06T14:25:21;8.35;;;3.63;;
76854;SDS011;66343;44.588;33.450;2023-04-06T14:27:52;8.90;;;4.15;;
76854;SDS011;66343;44.588;33.450;2023-04-06T14:30:31;8.50;;;3.53;;
76854;SDS011;66343;44.588;33.450;2023-04-06T14:33:05;7.97;;;3.42;;
76854;SDS011;66343;44.588;33.450;2023-04-06T14:35:40;8.93;;;3.50;;
76854;SDS011;66343;44.588;33.450;2023-04-06T14:38:10;8.48;;;4.00;;
76854;SDS011;66343;44.588;33.450;2023-04-06T14:40:45;7.95;;;4.28;;
76854;SDS011;66343;44.588;33.450;2023-04-06T14:43:15;9.88;;;4.00;;
76854;SDS011;66343;44.588;33.450;2023-04-06T14:45:47;9.45;;;4.28;;
76854;SDS011;66343;44.588;33.450;2023-04-06T14:48:17;10.23;;;4.40;;
76854;SDS011;66343;44.588;33.450;2023-04-06T14:50:55;11.05;;;4.05;;
76854;SDS011;66343;44.588;33.450;2023-04-06T14:53:28;10.60;;;4.22;;
76854;SDS011;66343;44.588;33.450;2023-04-06T14:55:59;9.43;;;4.03;;
76854;SDS011;66343;44.588;33.450;2023-04-06T14:58:29;12.65;;;4.35;;
76854;SDS011;66343;44.588;33.450;2023-04-06T15:01:03;8.85;;;4.30;;
76854;SDS011;66343;44.588;33.450;2023-04-06T15:03:36;12.95;;;4.95;;
76854;SDS011;66343;44.588;33.450;2023-04-06T15:06:11;10.50;;;4.53;;
76854;SDS011;66343;44.588;33.450;2023-04-06T15:08:48;9.13;;;4.97;;
76854;SDS011;66343;44.588;33.450;2023-04-06T15:11:19;8.77;;;4.07;;
76854;SDS011;66343;44.588;33.450;2023-04-06T15:13:52;11.48;;;4.65;;
76854;SDS011;66343;44.588;33.450;2023-04-06T15:16:26;10.02;;;4.07;;
76854;SDS011;66343;44.588;33.450;2023-04-06T15:19:01;9.57;;;4.82;;
76854;SDS011;66343;44.588;33.450;2023-04-06T15:21:31;11.75;;;5.70;;
76854;SDS011;66343;44.588;33.450;2023-04-06T15:24:04;12.05;;;5.13;;
76854;SDS011;66343;44.588;33.450;2023-04-06T15:26:37;14.18;;;6.60;;
76854;SDS011;66343;44.588;33.450;2023-04-06T15:29:07;14.23;;;7.47;;